sensor_id;sensor_type;location;lat;lon;timestamp;pressure;altitude;pressure_sealevel;temperature;humidity
64602;BME280;68371;42.630;23.192;2023-04-10T00:00:18;92337.63;;;5.16;81.20
64602;BME280;68371;42.630;23.192;2023-04-10T00:02:45;92330.44;;;5.22;80.91
64602;BME280;68371;42.630;23.192;2023-04-10T00:05:12;92333.81;;;5.14;81.65
64602;BME280;68371;42.630;23.192;2023-04-10T00:07:40;92327.84;;;5.13;80.50
64602;BME280;68371;42.630;23.192;2023-04-10T00:10:07;92332.72;;;5.15;79.99
64602;BME280;68371;42.630;23.192;2023-04-10T00:12:34;92339.00;;;5.05;80.05
64602;BME280;68371;42.630;23.192;2023-04-10T00:15:01;92333.78;;;5.05;80.05
64602;BME280;68371;42.630;23.192;2023-04-10T00:17:28;92332.13;;;5.09;80.27
64602;BME280;68371;42.630;23.192;2023-04-10T00:19:55;92323.50;;;5.09;80.27
64602;BME280;68371;42.630;23.192;2023-04-10T00:22:23;92321.19;;;4.98;82.01
64602;BME280;68371;42.630;23.192;2023-04-10T00:24:51;92320.13;;;4.99;82.17
64602;BME280;68371;42.630;23.192;2023-04-10T00:27:18;92312.31;;;4.99;82.79
64602;BME280;68371;42.630;23.192;2023-04-10T00:29:45;92314.19;;;5.08;82.78
64602;BME280;68371;42.630;23.192;2023-04-10T00:32:12;92314.94;;;5.08;82.70
64602;BME280;68371;42.630;23.192;2023-04-10T00:34:38;92311.88;;;5.06;83.24
64602;BME280;68371;42.630;23.192;2023-04-10T00:37:05;92315.09;;;5.12;83.25
64602;BME280;68371;42.630;23.192;2023-04-10T00:39:32;92316.50;;;5.09;81.48
64602;BME280;68371;42.630;23.192;2023-04-10T00:42:00;92315.69;;;5.09;82.00
64602;BME280;68371;42.630;23.192;2023-04-10T00:44:26;92318.31;;;5.09;80.30
64602;BME280;68371;42.630;23.192;2023-04-10T00:46:53;92306.38;;;5.08;80.14
64602;BME280;68371;42.630;23.192;2023-04-10T00:49:20;92306.34;;;4.99;80.20
64602;BME280;68371;42.630;23.192;2023-04-10T00:51:47;92313.09;;;5.00;79.67
64602;BME280;68371;42.630;23.192;2023-04-10T00:54:14;92311.38;;;4.95;79.94
64602;BME280;68371;42.630;23.192;2023-04-10T00:56:44;92316.16;;;5.02;79.70
64602;BME280;68371;42.630;23.192;2023-04-10T00:59:13;92308.97;;;4.99;79.03
64602;BME280;68371;42.630;23.192;2023-04-10T01:01:40;92305.56;;;4.98;79.35
64602;BME280;68371;42.630;23.192;2023-04-10T01:04:07;92303.47;;;5.09;78.46
64602;BME280;68371;42.630;23.192;2023-04-10T01:06:49;92305.44;;;5.12;77.98
64602;BME280;68371;42.630;23.192;2023-04-10T01:09:31;92312.69;;;5.15;77.90
64602;BME280;68371;42.630;23.192;2023-04-10T01:12:10;92305.16;;;5.05;77.23
64602;BME280;68371;42.630;23.192;2023-04-10T01:14:56;92306.66;;;5.06;76.30
64602;BME280;68371;42.630;23.192;2023-04-10T01:17:30;92311.13;;;5.06;77.12
64602;BME280;68371;42.630;23.192;2023-04-10T01:20:05;92302.03;;;4.94;76.94
64602;BME280;68371;42.630;23.192;2023-04-10T01:22:34;92313.19;;;4.86;77.02
64602;BME280;68371;42.630;23.192;2023-04-10T01:25:24;92310.28;;;4.88;76.39
64602;BME280;68371;42.630;23.192;2023-04-10T01:28:06;92318.44;;;4.95;76.09
64602;BME280;68371;42.630;23.192;2023-04-10T01:30:38;92301.28;;;4.94;75.44
64602;BME280;68371;42.630;23.192;2023-04-10T01:33:08;92310.25;;;4.79;76.04
64602;BME280;68371;42.630;23.192;2023-04-10T01:35:37;92310.91;;;4.85;76.43
64602;BME280;68371;42.630;23.192;2023-04-10T01:38:05;92308.59;;;4.83;76.62
64602;BME280;68371;42.630;23.192;2023-04-10T01:40:35;92316.19;;;4.71;75.93
64602;BME280;68371;42.630;23.192;2023-04-10T01:43:05;92308.53;;;4.74;77.45
64602;BME280;68371;42.630;23.192;2023-04-10T01:45:34;92311.03;;;4.88;78.00
64602;BME280;68371;42.630;23.192;2023-04-10T01:48:02;92297.88;;;4.85;77.71
64602;BME280;68371;42.630;23.192;2023-04-10T01:50:30;92304.44;;;4.82;79.28
64602;BME280;68371;42.630;23.192;2023-04-10T01:52:58;92304.31;;;4.87;79.44
64602;BME280;68371;42.630;23.192;2023-04-10T01:55:26;92270.22;;;4.57;78.56
64602;BME280;68371;42.630;23.192;2023-04-10T01:57:53;92306.25;;;4.73;78.66
64602;BME280;68371;42.630;23.192;2023-04-10T02:00:20;92297.53;;;4.69;79.66
64602;BME280;68371;42.630;23.192;2023-04-10T02:02:47;92294.47;;;4.75;79.79
64602;BME280;68371;42.630;23.192;2023-04-10T02:05:16;92293.81;;;4.61;79.36
64602;BME280;68371;42.630;23.192;2023-04-10T02:07:48;92291.53;;;4.68;79.71
64602;BME280;68371;42.630;23.192;2023-04-10T02:10:19;92287.69;;;4.66;80.51
64602;BME280;68371;42.630;23.192;2023-04-10T02:12:50;92288.16;;;4.68;80.34
64602;BME280;68371;42.630;23.192;2023-04-10T02:15:19;92283.41;;;4.61;80.39
64602;BME280;68371;42.630;23.192;2023-04-10T02:17:47;92288.25;;;4.54;80.92
64602;BME280;68371;42.630;23.192;2023-04-10T02:20:16;92291.50;;;4.59;81.32
64602;BME280;68371;42.630;23.192;2023-04-10T02:22:44;92287.22;;;4.64;82.36
64602;BME280;68371;42.630;23.192;2023-04-10T02:25:11;92295.78;;;4.64;81.99
64602;BME280;68371;42.630;23.192;2023-04-10T02:27:38;92288.31;;;4.63;83.23
64602;BME280;68371;42.630;23.192;2023-04-10T02:30:06;92287.13;;;4.69;82.87
64602;BME280;68371;42.630;23.192;2023-04-10T02:32:33;92286.38;;;4.77;82.30
64602;BME280;68371;42.630;23.192;2023-04-10T02:35:01;92277.31;;;4.74;82.54
64602;BME280;68371;42.630;23.192;2023-04-10T02:37:29;92281.94;;;4.86;81.47
64602;BME280;68371;42.630;23.192;2023-04-10T02:39:57;92273.66;;;4.75;82.51
64602;BME280;68371;42.630;23.192;2023-04-10T02:42:24;92270.41;;;4.70;82.48
64602;BME280;68371;42.630;23.192;2023-04-10T02:44:51;92253.59;;;4.76;82.54
64602;BME280;68371;42.630;23.192;2023-04-10T02:47:18;92266.31;;;4.77;82.59
64602;BME280;68371;42.630;23.192;2023-04-10T02:49:44;92256.34;;;4.71;82.67
64602;BME280;68371;42.630;23.192;2023-04-10T02:52:12;92261.41;;;4.76;82.79
64602;BME280;68371;42.630;23.192;2023-04-10T02:54:40;92265.69;;;4.72;83.20
64602;BME280;68371;42.630;23.192;2023-04-10T02:57:07;92275.91;;;4.68;82.95
64602;BME280;68371;42.630;23.192;2023-04-10T02:59:33;92269.19;;;4.67;83.40
64602;BME280;68371;42.630;23.192;2023-04-10T03:02:01;92268.44;;;4.67;83.71
64602;BME280;68371;42.630;23.192;2023-04-10T03:04:31;92264.28;;;4.66;83.70
64602;BME280;68371;42.630;23.192;2023-04-10T03:06:58;92261.56;;;4.71;83.86
64602;BME280;68371;42.630;23.192;2023-04-10T03:09:24;92259.56;;;4.76;83.44
64602;BME280;68371;42.630;23.192;2023-04-10T03:11:52;92267.53;;;4.80;83.40
64602;BME280;68371;42.630;23.192;2023-04-10T03:14:19;92266.16;;;4.74;83.63
64602;BME280;68371;42.630;23.192;2023-04-10T03:16:46;92269.97;;;4.76;83.60
64602;BME280;68371;42.630;23.192;2023-04-10T03:19:13;92268.28;;;4.72;83.92
64602;BME280;68371;42.630;23.192;2023-04-10T03:21:39;92277.63;;;4.73;84.22
64602;BME280;68371;42.630;23.192;2023-04-10T03:24:06;92277.78;;;4.76;84.16
64602;BME280;68371;42.630;23.192;2023-04-10T03:26:33;92278.25;;;4.78;84.45
64602;BME280;68371;42.630;23.192;2023-04-10T03:29:01;92274.88;;;4.78;84.83
64602;BME280;68371;42.630;23.192;2023-04-10T03:31:28;92281.75;;;4.74;84.94
64602;BME280;68371;42.630;23.192;2023-04-10T03:33:55;92278.97;;;4.70;84.65
64602;BME280;68371;42.630;23.192;2023-04-10T03:36:22;92276.84;;;4.72;85.16
64602;BME280;68371;42.630;23.192;2023-04-10T03:38:49;92275.44;;;4.66;84.88
64602;BME280;68371;42.630;23.192;2023-04-10T03:41:17;92274.00;;;4.43;86.45
64602;BME280;68371;42.630;23.192;2023-04-10T03:43:44;92279.78;;;4.39;86.80
64602;BME280;68371;42.630;23.192;2023-04-10T03:46:12;92283.47;;;4.38;86.89
64602;BME280;68371;42.630;23.192;2023-04-10T03:48:39;92285.44;;;4.41;87.21
64602;BME280;68371;42.630;23.192;2023-04-10T03:51:06;92284.97;;;4.39;87.54
64602;BME280;68371;42.630;23.192;2023-04-10T03:53:33;92282.56;;;4.43;87.16
64602;BME280;68371;42.630;23.192;2023-04-10T03:56:00;92256.41;;;4.17;87.42
64602;BME280;68371;42.630;23.192;2023-04-10T03:58:27;92289.91;;;4.50;87.48
64602;BME280;68371;42.630;23.192;2023-04-10T04:00:54;92290.38;;;4.52;87.58
64602;BME280;68371;42.630;23.192;2023-04-10T04:03:22;92289.03;;;4.54;87.47
64602;BME280;68371;42.630;23.192;2023-04-10T04:05:49;92296.66;;;4.51;88.05
64602;BME280;68371;42.630;23.192;2023-04-10T04:08:16;92300.41;;;4.36;89.07
64602;BME280;68371;42.630;23.192;2023-04-10T04:10:43;92304.28;;;4.38;89.16
64602;BME280;68371;42.630;23.192;2023-04-10T04:13:09;92312.41;;;4.46;89.41
64602;BME280;68371;42.630;23.192;2023-04-10T04:15:36;92302.25;;;4.35;90.45
64602;BME280;68371;42.630;23.192;2023-04-10T04:18:03;92307.44;;;4.35;91.23
64602;BME280;68371;42.630;23.192;2023-04-10T04:20:31;92311.41;;;4.33;91.99
64602;BME280;68371;42.630;23.192;2023-04-10T04:22:58;92309.59;;;4.33;92.63
64602;BME280;68371;42.630;23.192;2023-04-10T04:25:24;92314.97;;;4.37;92.81
64602;BME280;68371;42.630;23.192;2023-04-10T04:27:51;92314.78;;;4.33;93.35
64602;BME280;68371;42.630;23.192;2023-04-10T04:30:18;92319.72;;;4.44;93.18
64602;BME280;68371;42.630;23.192;2023-04-10T04:32:44;92324.34;;;4.47;93.44
64602;BME280;68371;42.630;23.192;2023-04-10T04:35:11;92331.25;;;4.51;93.62
64602;BME280;68371;42.630;23.192;2023-04-10T04:37:39;92319.06;;;4.60;93.51
64602;BME280;68371;42.630;23.192;2023-04-10T04:40:06;92336.38;;;4.65;93.84
64602;BME280;68371;42.630;23.192;2023-04-10T04:42:33;92325.69;;;4.67;93.30
64602;BME280;68371;42.630;23.192;2023-04-10T04:45:01;92327.81;;;4.65;93.66
64602;BME280;68371;42.630;23.192;2023-04-10T04:47:27;92326.91;;;4.69;93.40
64602;BME280;68371;42.630;23.192;2023-04-10T04:49:54;92329.25;;;4.79;92.93
64602;BME280;68371;42.630;23.192;2023-04-10T04:52:21;92327.28;;;4.85;92.70
64602;BME280;68371;42.630;23.192;2023-04-10T04:54:49;92329.44;;;4.92;92.32
64602;BME280;68371;42.630;23.192;2023-04-10T04:57:15;92328.69;;;4.91;92.05
64602;BME280;68371;42.630;23.192;2023-04-10T04:59:42;92334.34;;;4.93;91.77
64602;BME280;68371;42.630;23.192;2023-04-10T05:02:09;92338.34;;;4.91;91.68
64602;BME280;68371;42.630;23.192;2023-04-10T05:04:36;92334.66;;;5.00;90.93
64602;BME280;68371;42.630;23.192;2023-04-10T05:07:02;92336.81;;;4.98;91.80
64602;BME280;68371;42.630;23.192;2023-04-10T05:09:29;92333.78;;;5.05;91.16
64602;BME280;68371;42.630;23.192;2023-04-10T05:11:57;92338.06;;;5.01;90.09
64602;BME280;68371;42.630;23.192;2023-04-10T05:14:24;92340.50;;;5.06;90.98
64602;BME280;68371;42.630;23.192;2023-04-10T05:16:51;92343.47;;;5.13;90.04
64602;BME280;68371;42.630;23.192;2023-04-10T05:19:17;92343.28;;;5.10;89.68
64602;BME280;68371;42.630;23.192;2023-04-10T05:21:44;92344.06;;;5.10;89.06
64602;BME280;68371;42.630;23.192;2023-04-10T05:24:11;92328.38;;;4.93;89.55
64602;BME280;68371;42.630;23.192;2023-04-10T05:26:38;92342.75;;;4.90;90.13
64602;BME280;68371;42.630;23.192;2023-04-10T05:29:07;92340.03;;;5.04;88.96
64602;BME280;68371;42.630;23.192;2023-04-10T05:31:34;92341.44;;;5.01;88.82
64602;BME280;68371;42.630;23.192;2023-04-10T05:34:01;92333.72;;;4.96;89.04
64602;BME280;68371;42.630;23.192;2023-04-10T05:36:28;92340.69;;;5.10;90.37
64602;BME280;68371;42.630;23.192;2023-04-10T05:38:54;92340.56;;;5.24;89.00
64602;BME280;68371;42.630;23.192;2023-04-10T05:41:21;92332.25;;;5.13;87.95
64602;BME280;68371;42.630;23.192;2023-04-10T05:43:48;92339.19;;;5.17;87.86
64602;BME280;68371;42.630;23.192;2023-04-10T05:46:16;92338.09;;;5.10;88.30
64602;BME280;68371;42.630;23.192;2023-04-10T05:48:43;92340.84;;;5.13;88.47
64602;BME280;68371;42.630;23.192;2023-04-10T05:51:10;92330.44;;;5.13;88.43
64602;BME280;68371;42.630;23.192;2023-04-10T05:53:36;92335.19;;;5.11;88.54
64602;BME280;68371;42.630;23.192;2023-04-10T05:56:03;92338.56;;;5.20;88.21
64602;BME280;68371;42.630;23.192;2023-04-10T05:58:31;92336.56;;;5.17;88.47
64602;BME280;68371;42.630;23.192;2023-04-10T06:00:57;92345.50;;;5.34;88.02
64602;BME280;68371;42.630;23.192;2023-04-10T06:03:25;92314.19;;;5.16;87.76
64602;BME280;68371;42.630;23.192;2023-04-10T06:05:54;92333.53;;;5.33;88.47
64602;BME280;68371;42.630;23.192;2023-04-10T06:08:21;92333.25;;;5.34;88.18
64602;BME280;68371;42.630;23.192;2023-04-10T06:10:48;92341.81;;;5.35;88.73
64602;BME280;68371;42.630;23.192;2023-04-10T06:13:15;92338.28;;;5.31;88.35
64602;BME280;68371;42.630;23.192;2023-04-10T06:15:42;92342.56;;;5.27;89.00
64602;BME280;68371;42.630;23.192;2023-04-10T06:18:08;92338.44;;;5.26;89.45
64602;BME280;68371;42.630;23.192;2023-04-10T06:20:37;92347.59;;;5.23;89.50
64602;BME280;68371;42.630;23.192;2023-04-10T06:23:04;92347.31;;;5.25;89.82
64602;BME280;68371;42.630;23.192;2023-04-10T06:25:31;92339.38;;;5.30;89.69
64602;BME280;68371;42.630;23.192;2023-04-10T06:27:57;92341.81;;;5.26;90.24
64602;BME280;68371;42.630;23.192;2023-04-10T06:30:24;92338.91;;;5.36;90.76
64602;BME280;68371;42.630;23.192;2023-04-10T06:32:51;92340.00;;;5.44;89.97
64602;BME280;68371;42.630;23.192;2023-04-10T06:35:18;92334.03;;;5.52;89.32
64602;BME280;68371;42.630;23.192;2023-04-10T06:37:47;92334.34;;;5.51;88.79
64602;BME280;68371;42.630;23.192;2023-04-10T06:40:14;92335.88;;;5.52;88.88
64602;BME280;68371;42.630;23.192;2023-04-10T06:42:40;92340.19;;;5.56;87.60
64602;BME280;68371;42.630;23.192;2023-04-10T06:45:08;92337.09;;;5.63;87.57
64602;BME280;68371;42.630;23.192;2023-04-10T06:47:35;92345.69;;;5.63;88.05
64602;BME280;68371;42.630;23.192;2023-04-10T06:50:01;92343.56;;;5.83;87.95
64602;BME280;68371;42.630;23.192;2023-04-10T06:52:28;92335.28;;;5.90;88.73
64602;BME280;68371;42.630;23.192;2023-04-10T06:54:56;92339.63;;;6.03;88.71
64602;BME280;68371;42.630;23.192;2023-04-10T06:57:23;92344.22;;;6.15;87.00
64602;BME280;68371;42.630;23.192;2023-04-10T06:59:49;92341.75;;;6.27;87.07
64602;BME280;68371;42.630;23.192;2023-04-10T07:02:16;92343.09;;;6.42;86.31
64602;BME280;68371;42.630;23.192;2023-04-10T07:04:43;92338.16;;;6.58;86.45
64602;BME280;68371;42.630;23.192;2023-04-10T07:07:10;92324.81;;;6.51;83.52
64602;BME280;68371;42.630;23.192;2023-04-10T07:09:37;92354.09;;;6.74;84.78
64602;BME280;68371;42.630;23.192;2023-04-10T07:12:06;92343.56;;;6.91;82.26
64602;BME280;68371;42.630;23.192;2023-04-10T07:14:33;92349.25;;;6.93;80.49
64602;BME280;68371;42.630;23.192;2023-04-10T07:17:00;92345.88;;;7.01;80.30
64602;BME280;68371;42.630;23.192;2023-04-10T07:19:27;92343.16;;;7.19;79.59
64602;BME280;68371;42.630;23.192;2023-04-10T07:21:54;92352.66;;;7.32;78.88
64602;BME280;68371;42.630;23.192;2023-04-10T07:24:21;92341.09;;;7.33;79.01
64602;BME280;68371;42.630;23.192;2023-04-10T07:26:48;92345.97;;;7.43;77.67
64602;BME280;68371;42.630;23.192;2023-04-10T07:29:16;92344.59;;;7.46;77.60
64602;BME280;68371;42.630;23.192;2023-04-10T07:31:42;92342.94;;;7.62;76.81
64602;BME280;68371;42.630;23.192;2023-04-10T07:34:09;92344.75;;;7.71;76.97
64602;BME280;68371;42.630;23.192;2023-04-10T07:36:36;92319.41;;;7.62;77.16
64602;BME280;68371;42.630;23.192;2023-04-10T07:39:03;92359.59;;;7.79;75.09
64602;BME280;68371;42.630;23.192;2023-04-10T07:41:30;92351.19;;;7.73;75.10
64602;BME280;68371;42.630;23.192;2023-04-10T07:43:57;92355.72;;;7.85;75.50
64602;BME280;68371;42.630;23.192;2023-04-10T07:46:25;92356.84;;;7.75;76.06
64602;BME280;68371;42.630;23.192;2023-04-10T07:48:52;92355.00;;;7.76;73.88
64602;BME280;68371;42.630;23.192;2023-04-10T07:51:19;92349.63;;;7.72;75.02
64602;BME280;68371;42.630;23.192;2023-04-10T07:53:46;92348.78;;;7.89;76.43
64602;BME280;68371;42.630;23.192;2023-04-10T07:56:16;92352.13;;;7.90;74.91
64602;BME280;68371;42.630;23.192;2023-04-10T07:58:43;92345.47;;;8.01;74.71
64602;BME280;68371;42.630;23.192;2023-04-10T08:01:10;92320.50;;;8.03;76.33
64602;BME280;68371;42.630;23.192;2023-04-10T08:03:39;92344.34;;;8.23;74.43
64602;BME280;68371;42.630;23.192;2023-04-10T08:06:07;92344.50;;;8.39;75.08
64602;BME280;68371;42.630;23.192;2023-04-10T08:08:35;92342.94;;;8.47;73.08
64602;BME280;68371;42.630;23.192;2023-04-10T08:11:03;92335.41;;;8.45;72.12
64602;BME280;68371;42.630;23.192;2023-04-10T08:13:30;92348.81;;;8.44;73.69
64602;BME280;68371;42.630;23.192;2023-04-10T08:15:56;92335.97;;;8.30;72.32
64602;BME280;68371;42.630;23.192;2023-04-10T08:18:23;92336.94;;;8.46;73.71
64602;BME280;68371;42.630;23.192;2023-04-10T08:20:51;92345.16;;;8.36;71.98
64602;BME280;68371;42.630;23.192;2023-04-10T08:23:18;92338.78;;;8.46;71.22
64602;BME280;68371;42.630;23.192;2023-04-10T08:25:44;92351.72;;;8.63;72.44
64602;BME280;68371;42.630;23.192;2023-04-10T08:28:11;92344.44;;;8.81;73.70
64602;BME280;68371;42.630;23.192;2023-04-10T08:30:38;92341.63;;;8.98;71.96
64602;BME280;68371;42.630;23.192;2023-04-10T08:33:04;92346.53;;;9.12;70.95
64602;BME280;68371;42.630;23.192;2023-04-10T08:35:31;92333.47;;;9.25;69.82
64602;BME280;68371;42.630;23.192;2023-04-10T08:38:00;92335.22;;;9.33;69.40
64602;BME280;68371;42.630;23.192;2023-04-10T08:40:26;92335.97;;;9.46;70.22
64602;BME280;68371;42.630;23.192;2023-04-10T08:42:53;92332.47;;;9.54;69.85
64602;BME280;68371;42.630;23.192;2023-04-10T08:45:20;92329.63;;;9.71;69.81
64602;BME280;68371;42.630;23.192;2023-04-10T08:47:49;92333.78;;;9.48;69.99
64602;BME280;68371;42.630;23.192;2023-04-10T08:50:17;92329.84;;;9.41;69.71
64602;BME280;68371;42.630;23.192;2023-04-10T08:52:44;92333.34;;;9.46;67.66
64602;BME280;68371;42.630;23.192;2023-04-10T08:55:13;92330.50;;;9.63;68.26
64602;BME280;68371;42.630;23.192;2023-04-10T08:57:40;92339.44;;;9.62;68.03
64602;BME280;68371;42.630;23.192;2023-04-10T09:00:08;92332.00;;;9.76;65.62
64602;BME280;68371;42.630;23.192;2023-04-10T09:02:37;92322.22;;;9.89;68.62
64602;BME280;68371;42.630;23.192;2023-04-10T09:05:07;92332.66;;;9.86;64.81
64602;BME280;68371;42.630;23.192;2023-04-10T09:07:35;92327.72;;;9.84;66.51
64602;BME280;68371;42.630;23.192;2023-04-10T09:10:02;92337.75;;;9.94;65.46
64602;BME280;68371;42.630;23.192;2023-04-10T09:12:42;92330.25;;;9.80;65.12
64602;BME280;68371;42.630;23.192;2023-04-10T09:15:09;92326.69;;;9.48;65.96
64602;BME280;68371;42.630;23.192;2023-04-10T09:17:36;92311.38;;;9.50;65.18
64602;BME280;68371;42.630;23.192;2023-04-10T09:20:19;92319.13;;;9.59;67.43
64602;BME280;68371;42.630;23.192;2023-04-10T09:22:46;92336.38;;;9.72;66.18
64602;BME280;68371;42.630;23.192;2023-04-10T09:25:28;92300.69;;;9.43;64.11
64602;BME280;68371;42.630;23.192;2023-04-10T09:28:00;92322.44;;;9.31;67.33
64602;BME280;68371;42.630;23.192;2023-04-10T09:30:36;92247.19;;;9.07;68.25
64602;BME280;68371;42.630;23.192;2023-04-10T09:33:20;92317.38;;;9.63;67.25
64602;BME280;68371;42.630;23.192;2023-04-10T09:35:47;92320.78;;;9.63;65.89
64602;BME280;68371;42.630;23.192;2023-04-10T09:38:14;92309.88;;;9.49;64.93
64602;BME280;68371;42.630;23.192;2023-04-10T09:40:42;92323.63;;;9.46;66.13
64602;BME280;68371;42.630;23.192;2023-04-10T09:43:21;92316.63;;;9.50;65.85
64602;BME280;68371;42.630;23.192;2023-04-10T09:45:50;92323.28;;;9.48;65.18
64602;BME280;68371;42.630;23.192;2023-04-10T09:48:17;92320.25;;;9.46;62.48
64602;BME280;68371;42.630;23.192;2023-04-10T09:50:44;92317.63;;;9.46;63.39
64602;BME280;68371;42.630;23.192;2023-04-10T09:53:13;92328.13;;;9.33;64.68
64602;BME280;68371;42.630;23.192;2023-04-10T09:55:40;92328.00;;;9.30;64.99
64602;BME280;68371;42.630;23.192;2023-04-10T09:58:08;92322.44;;;9.19;65.22
64602;BME280;68371;42.630;23.192;2023-04-10T10:00:39;92336.72;;;9.09;67.20
64602;BME280;68371;42.630;23.192;2023-04-10T10:03:08;92308.09;;;9.04;66.42
64602;BME280;68371;42.630;23.192;2023-04-10T10:05:37;92321.00;;;9.21;66.64
64602;BME280;68371;42.630;23.192;2023-04-10T10:08:05;92322.13;;;9.33;66.31
64602;BME280;68371;42.630;23.192;2023-04-10T10:10:33;92316.31;;;9.52;68.33
64602;BME280;68371;42.630;23.192;2023-04-10T10:13:01;92306.91;;;9.63;65.18
64602;BME280;68371;42.630;23.192;2023-04-10T10:15:34;92314.97;;;9.58;64.59
64602;BME280;68371;42.630;23.192;2023-04-10T10:18:08;92269.56;;;9.29;67.43
64602;BME280;68371;42.630;23.192;2023-04-10T10:20:43;92303.63;;;9.41;64.98
64602;BME280;68371;42.630;23.192;2023-04-10T10:23:11;92310.94;;;9.48;65.73
64602;BME280;68371;42.630;23.192;2023-04-10T10:25:38;92306.16;;;9.26;63.94
64602;BME280;68371;42.630;23.192;2023-04-10T10:28:05;92304.19;;;9.35;65.27
64602;BME280;68371;42.630;23.192;2023-04-10T10:30:34;92304.06;;;9.56;66.27
64602;BME280;68371;42.630;23.192;2023-04-10T10:33:06;92292.56;;;9.60;62.73
64602;BME280;68371;42.630;23.192;2023-04-10T10:35:34;92301.66;;;9.63;63.80
64602;BME280;68371;42.630;23.192;2023-04-10T10:38:02;92291.25;;;9.67;66.28
64602;BME280;68371;42.630;23.192;2023-04-10T10:40:31;92293.41;;;9.77;64.58
64602;BME280;68371;42.630;23.192;2023-04-10T10:43:09;92289.09;;;9.97;64.10
64602;BME280;68371;42.630;23.192;2023-04-10T10:45:43;92281.75;;;10.02;61.62
64602;BME280;68371;42.630;23.192;2023-04-10T10:48:15;92281.53;;;10.36;62.30
64602;BME280;68371;42.630;23.192;2023-04-10T10:50:53;92281.13;;;10.50;59.83
64602;BME280;68371;42.630;23.192;2023-04-10T10:53:36;92275.97;;;10.53;58.79
64602;BME280;68371;42.630;23.192;2023-04-10T10:56:32;92270.47;;;10.58;56.41
64602;BME280;68371;42.630;23.192;2023-04-10T10:59:00;92271.84;;;10.84;58.75
64602;BME280;68371;42.630;23.192;2023-04-10T11:01:27;92277.00;;;11.12;59.02
64602;BME280;68371;42.630;23.192;2023-04-10T11:03:55;92268.13;;;11.01;57.64
64602;BME280;68371;42.630;23.192;2023-04-10T11:06:48;92267.34;;;11.16;56.92
64602;BME280;68371;42.630;23.192;2023-04-10T11:09:44;92254.19;;;11.16;56.96
64602;BME280;68371;42.630;23.192;2023-04-10T11:12:12;92254.53;;;11.15;55.55
64602;BME280;68371;42.630;23.192;2023-04-10T11:14:41;92264.19;;;11.11;57.41
64602;BME280;68371;42.630;23.192;2023-04-10T11:17:08;92259.19;;;11.21;56.80
64602;BME280;68371;42.630;23.192;2023-04-10T11:19:57;92254.59;;;11.18;57.25
64602;BME280;68371;42.630;23.192;2023-04-10T11:22:25;92257.03;;;11.43;58.73
64602;BME280;68371;42.630;23.192;2023-04-10T11:24:57;92246.94;;;11.29;57.36
64602;BME280;68371;42.630;23.192;2023-04-10T11:27:37;92249.97;;;11.12;58.41
64602;BME280;68371;42.630;23.192;2023-04-10T11:30:24;92242.50;;;11.14;57.06
64602;BME280;68371;42.630;23.192;2023-04-10T11:32:51;92242.41;;;11.10;55.81
64602;BME280;68371;42.630;23.192;2023-04-10T11:35:19;92244.97;;;10.91;55.53
64602;BME280;68371;42.630;23.192;2023-04-10T11:37:46;92241.84;;;10.85;55.55
64602;BME280;68371;42.630;23.192;2023-04-10T11:40:13;92241.75;;;10.81;55.08
64602;BME280;68371;42.630;23.192;2023-04-10T11:42:41;92241.94;;;10.73;55.41
64602;BME280;68371;42.630;23.192;2023-04-10T11:45:23;92240.91;;;10.77;54.83
64602;BME280;68371;42.630;23.192;2023-04-10T11:47:50;92232.59;;;10.75;55.12
64602;BME280;68371;42.630;23.192;2023-04-10T11:50:18;92254.03;;;10.61;56.30
64602;BME280;68371;42.630;23.192;2023-04-10T11:52:45;92257.66;;;10.13;64.55
64602;BME280;68371;42.630;23.192;2023-04-10T11:55:12;92250.31;;;9.90;66.47
64602;BME280;68371;42.630;23.192;2023-04-10T11:57:41;92191.44;;;9.47;66.76
64602;BME280;68371;42.630;23.192;2023-04-10T12:00:09;92237.50;;;9.60;66.09
64602;BME280;68371;42.630;23.192;2023-04-10T12:02:49;92235.19;;;9.59;67.06
64602;BME280;68371;42.630;23.192;2023-04-10T12:05:18;92230.78;;;9.35;67.46
64602;BME280;68371;42.630;23.192;2023-04-10T12:07:45;92227.78;;;9.49;68.33
64602;BME280;68371;42.630;23.192;2023-04-10T12:10:13;92213.47;;;9.58;67.02
64602;BME280;68371;42.630;23.192;2023-04-10T12:12:41;92208.91;;;9.83;65.56
64602;BME280;68371;42.630;23.192;2023-04-10T12:15:25;92214.69;;;10.05;63.91
64602;BME280;68371;42.630;23.192;2023-04-10T12:17:53;92212.69;;;10.14;63.21
64602;BME280;68371;42.630;23.192;2023-04-10T12:20:21;92224.66;;;9.99;61.71
64602;BME280;68371;42.630;23.192;2023-04-10T12:22:53;92224.34;;;10.01;61.64
64602;BME280;68371;42.630;23.192;2023-04-10T12:25:20;92227.66;;;9.98;63.26
64602;BME280;68371;42.630;23.192;2023-04-10T12:27:48;92213.56;;;9.90;64.07
64602;BME280;68371;42.630;23.192;2023-04-10T12:30:15;92214.38;;;10.07;64.60
64602;BME280;68371;42.630;23.192;2023-04-10T12:32:50;92208.38;;;10.06;63.96
64602;BME280;68371;42.630;23.192;2023-04-10T12:35:17;92215.09;;;9.91;63.31
64602;BME280;68371;42.630;23.192;2023-04-10T12:37:50;92216.81;;;9.71;64.65
64602;BME280;68371;42.630;23.192;2023-04-10T12:40:19;92229.59;;;9.20;67.83
64602;BME280;68371;42.630;23.192;2023-04-10T12:42:46;92249.69;;;8.67;69.61
64602;BME280;68371;42.630;23.192;2023-04-10T12:45:13;92255.06;;;8.37;73.15
64602;BME280;68371;42.630;23.192;2023-04-10T12:47:45;92257.97;;;8.44;74.41
64602;BME280;68371;42.630;23.192;2023-04-10T12:50:14;92259.28;;;8.50;77.10
64602;BME280;68371;42.630;23.192;2023-04-10T12:52:42;92260.09;;;8.30;77.15
64602;BME280;68371;42.630;23.192;2023-04-10T12:55:12;92240.50;;;8.15;79.20
64602;BME280;68371;42.630;23.192;2023-04-10T12:57:41;92260.59;;;8.23;81.01
64602;BME280;68371;42.630;23.192;2023-04-10T13:00:11;92262.25;;;8.28;82.26
64602;BME280;68371;42.630;23.192;2023-04-10T13:02:39;92256.94;;;8.36;82.93
64602;BME280;68371;42.630;23.192;2023-04-10T13:05:07;92229.97;;;8.23;82.27
64602;BME280;68371;42.630;23.192;2023-04-10T13:07:34;92234.66;;;8.30;83.28